Time;durP1;ratioP1;P1;durP2;ratioP2;P2;SDS_P1;SDS_P2;PMS_P1;PMS_P2;Temp;Humidity;BMP_temperature;BMP_pressure;BME280_temperature;BME280_humidity;BME280_pressure;Samples;Min_cycle;Max_cycle;Signal;HPM_P1;HPM_P2
2024/04/03 00:00:53;;;;;;;11.70;3.23;;;;;;;;;;4901545;29;20774;-85
2024/04/03 00:03:19;;;;;;;3.60;2.93;;;;;;;;;;4903651;29;20683;-84
2024/04/03 00:05:45;;;;;;;3.67;2.97;;;;;;;;;;4903056;29;20206;-85
2024/04/03 00:08:11;;;;;;;4.97;2.33;;;;;;;;;;4903835;29;20227;-85
2024/04/03 00:10:38;;;;;;;2.53;2.27;;;;;;;;;;4887893;29;20253;-84
2024/04/03 00:13:04;;;;;;;3.93;3.27;;;;;;;;;;4903431;29;20242;-82
2024/04/03 00:15:30;;;;;;;3.13;2.93;;;;;;;;;;4903662;29;20233;-83
2024/04/03 00:17:59;;;;;;;3.80;2.60;;;;;;;;;;4919754;29;20244;-84
2024/04/03 00:20:25;;;;;;;3.33;3.03;;;;;;;;;;4919808;29;20289;-84
2024/04/03 00:22:51;;;;;;;3.30;3.00;;;;;;;;;;4887773;29;20238;-85
2024/04/03 00:25:20;;;;;;;3.47;1.80;;;;;;;;;;4903508;29;20247;-85
2024/04/03 00:27:46;;;;;;;3.43;2.50;;;;;;;;;;4903374;29;20234;-84
2024/04/03 00:30:12;;;;;;;2.70;1.83;;;;;;;;;;4903402;29;20244;-83
2024/04/03 00:32:38;;;;;;;3.00;2.70;;;;;;;;;;4919100;29;20203;-83
2024/04/03 00:35:05;;;;;;;3.23;2.47;;;;;;;;;;4888238;29;20254;-83
2024/04/03 00:37:36;;;;;;;4.73;1.73;;;;;;;;;;4918911;29;20385;-84
2024/04/03 00:40:06;;;;;;;4.60;2.10;;;;;;;;;;4918840;29;20376;-83
2024/04/03 00:42:32;;;;;;;3.10;2.90;;;;;;;;;;4902983;29;20254;-84
2024/04/03 00:44:58;;;;;;;5.37;3.17;;;;;;;;;;4902966;29;20305;-83
2024/04/03 00:47:25;;;;;;;3.03;2.73;;;;;;;;;;4903568;29;20226;-84
2024/04/03 00:49:51;;;;;;;3.97;2.03;;;;;;;;;;4918045;29;20282;-83
2024/04/03 00:52:17;;;;;;;2.17;1.80;;;;;;;;;;4902746;29;20702;-83
2024/04/03 00:54:46;;;;;;;2.00;1.90;;;;;;;;;;4918811;29;20380;-84
2024/04/03 00:57:14;;;;;;;1.93;1.73;;;;;;;;;;4902654;29;20234;-84
2024/04/03 00:59:40;;;;;;;2.00;1.90;;;;;;;;;;4902368;29;20242;-83
2024/04/03 01:02:06;;;;;;;13.97;2.80;;;;;;;;;;4903215;29;20221;-85
2024/04/03 01:04:32;;;;;;;2.03;1.80;;;;;;;;;;4902540;29;20696;-84
2024/04/03 01:07:02;;;;;;;2.00;1.87;;;;;;;;;;4902509;29;20241;-83
2024/04/03 01:09:28;;;;;;;4.20;2.47;;;;;;;;;;4917968;29;20234;-83
2024/04/03 01:11:54;;;;;;;14.43;3.13;;;;;;;;;;4886412;29;20266;-83
2024/04/03 01:14:20;;;;;;;2.70;2.13;;;;;;;;;;4887367;29;20210;-84
2024/04/03 01:16:46;;;;;;;3.10;2.80;;;;;;;;;;4918339;29;20241;-82
2024/04/03 01:19:12;;;;;;;3.97;2.30;;;;;;;;;;4902110;29;20313;-85
2024/04/03 01:21:38;;;;;;;4.37;1.77;;;;;;;;;;4917928;29;20230;-85
2024/04/03 01:24:05;;;;;;;6.17;2.83;;;;;;;;;;4917020;29;20413;-83
2024/04/03 01:26:31;;;;;;;2.83;2.63;;;;;;;;;;4871149;29;20223;-84
2024/04/03 01:28:57;;;;;;;2.97;2.33;;;;;;;;;;4885247;29;20737;-84
2024/04/03 01:31:23;;;;;;;3.80;2.90;;;;;;;;;;4917000;29;20242;-82
2024/04/03 01:33:49;;;;;;;2.37;2.00;;;;;;;;;;4885255;29;20241;-85
2024/04/03 01:36:18;;;;;;;1.03;1.03;;;;;;;;;;4885591;29;20266;-85
2024/04/03 01:38:45;;;;;;;1.73;1.63;;;;;;;;;;4870801;29;20227;-83
2024/04/03 01:41:12;;;;;;;3.07;2.77;;;;;;;;;;4886413;29;20270;-85
2024/04/03 01:43:38;;;;;;;1.43;1.30;;;;;;;;;;4916994;29;20238;-84
2024/04/03 01:46:04;;;;;;;1.73;1.43;;;;;;;;;;4870076;29;20325;-84
2024/04/03 01:48:30;;;;;;;7.40;3.57;;;;;;;;;;4882010;29;20235;-85
2024/04/03 01:50:56;;;;;;;2.43;2.00;;;;;;;;;;4866751;29;20235;-83
2024/04/03 01:53:22;;;;;;;3.37;3.07;;;;;;;;;;4867369;29;20656;-85
2024/04/03 01:55:55;;;;;;;6.60;2.57;;;;;;;;;;4866462;29;20245;-85
2024/04/03 01:58:21;;;;;;;2.03;1.00;;;;;;;;;;4866639;29;20239;-86
2024/04/03 02:00:51;;;;;;;1.63;1.53;;;;;;;;;;4881656;29;20278;-84
2024/04/03 02:03:17;;;;;;;3.13;2.93;;;;;;;;;;4866026;29;20256;-86
2024/04/03 02:05:47;;;;;;;3.40;1.43;;;;;;;;;;4865712;29;20203;-85
2024/04/03 02:08:13;;;;;;;12.57;2.93;;;;;;;;;;4866443;29;20235;-84
2024/04/03 02:10:39;;;;;;;3.20;1.37;;;;;;;;;;4865896;29;20235;-84
2024/04/03 02:13:05;;;;;;;3.73;2.30;;;;;;;;;;4850774;29;20355;-85
2024/04/03 02:15:32;;;;;;;2.10;1.77;;;;;;;;;;4881242;29;20250;-85
2024/04/03 02:17:58;;;;;;;2.17;1.63;;;;;;;;;;4865707;29;20238;-86
2024/04/03 02:20:24;;;;;;;3.97;2.30;;;;;;;;;;4866783;29;20215;-87
2024/04/03 02:22:53;;;;;;;4.80;2.53;;;;;;;;;;4865278;29;20239;-86
2024/04/03 02:25:20;;;;;;;9.23;2.20;;;;;;;;;;4872445;29;20238;-85
2024/04/03 02:27:46;;;;;;;2.07;1.97;;;;;;;;;;4900946;29;20317;-86
2024/04/03 02:30:12;;;;;;;3.87;1.97;;;;;;;;;;4901040;29;20233;-85
2024/04/03 02:32:39;;;;;;;4.63;1.90;;;;;;;;;;4901354;29;20217;-87
2024/04/03 02:35:05;;;;;;;1.97;1.83;;;;;;;;;;4902056;29;20238;-87
2024/04/03 02:37:31;;;;;;;15.80;1.93;;;;;;;;;;4916987;29;20242;-85
2024/04/03 02:39:57;;;;;;;1.83;1.60;;;;;;;;;;4900906;29;20234;-85
2024/04/03 02:42:26;;;;;;;3.43;3.07;;;;;;;;;;4900920;29;20699;-85
2024/04/03 02:44:52;;;;;;;1.33;1.23;;;;;;;;;;4901926;29;20206;-85
2024/04/03 02:47:18;;;;;;;2.13;1.67;;;;;;;;;;4886179;29;20213;-86
2024/04/03 02:49:44;;;;;;;12.83;1.83;;;;;;;;;;4916642;29;20246;-85
2024/04/03 02:52:10;;;;;;;1.83;1.63;;;;;;;;;;4901015;29;20779;-85
2024/04/03 02:54:36;;;;;;;19.37;1.77;;;;;;;;;;4900880;29;20245;-85
2024/04/03 02:57:03;;;;;;;7.00;2.00;;;;;;;;;;4886096;29;20238;-85
2024/04/03 02:59:29;;;;;;;6.13;1.80;;;;;;;;;;4901078;29;20210;-84
2024/04/03 03:01:55;;;;;;;8.27;2.00;;;;;;;;;;4885474;29;20313;-86
2024/04/03 03:04:21;;;;;;;9.77;1.47;;;;;;;;;;4916882;29;20268;-85
2024/04/03 03:06:47;;;;;;;1.00;0.97;;;;;;;;;;4900936;29;20238;-85
2024/04/03 03:09:13;;;;;;;7.50;2.17;;;;;;;;;;4916256;29;20241;-85
2024/04/03 03:11:40;;;;;;;7.10;1.63;;;;;;;;;;4900840;29;20392;-85
2024/04/03 03:14:06;;;;;;;2.60;1.60;;;;;;;;;;4917324;29;20210;-85
2024/04/03 03:16:32;;;;;;;1.77;1.33;;;;;;;;;;4900353;29;20261;-86
2024/04/03 03:18:58;;;;;;;1.73;1.20;;;;;;;;;;4900722;29;20328;-85
2024/04/03 03:21:24;;;;;;;2.93;1.73;;;;;;;;;;4900694;29;20245;-84
2024/04/03 03:23:50;;;;;;;2.20;2.00;;;;;;;;;;4900129;29;20257;-84
2024/04/03 03:26:16;;;;;;;1.03;0.97;;;;;;;;;;4886147;29;20210;-84
2024/04/03 03:28:42;;;;;;;2.53;1.50;;;;;;;;;;4899971;29;20245;-86
2024/04/03 03:31:08;;;;;;;5.23;1.53;;;;;;;;;;4916186;29;20302;-83
2024/04/03 03:33:38;;;;;;;3.30;1.80;;;;;;;;;;4884727;29;20245;-85
2024/04/03 03:36:04;;;;;;;5.13;1.53;;;;;;;;;;4884775;29;20234;-87
2024/04/03 03:38:30;;;;;;;2.40;1.63;;;;;;;;;;4885604;29;20202;-87
2024/04/03 03:40:56;;;;;;;2.63;2.10;;;;;;;;;;4884147;29;20265;-86
2024/04/03 03:43:23;;;;;;;1.77;1.60;;;;;;;;;;4900102;29;20246;-83
2024/04/03 03:45:50;;;;;;;1.63;1.13;;;;;;;;;;4899974;29;20289;-84
2024/04/03 03:48:16;;;;;;;3.80;1.97;;;;;;;;;;4915731;29;20238;-84
2024/04/03 03:53:30;;;;;;;4.40;1.37;;;;;;;;;;4902423;29;20813;-84
2024/04/03 03:55:56;;;;;;;1.53;1.43;;;;;;;;;;4900115;29;20245;-87
2024/04/03 03:58:23;;;;;;;1.67;1.57;;;;;;;;;;4899445;29;20241;-85
2024/04/03 04:00:49;;;;;;;1.77;1.67;;;;;;;;;;4884347;29;20238;-88
2024/04/03 04:03:15;;;;;;;1.90;1.77;;;;;;;;;;4899528;29;20341;-87
2024/04/03 04:05:41;;;;;;;8.47;1.43;;;;;;;;;;4899837;29;20214;-87
2024/04/03 04:08:07;;;;;;;3.07;2.00;;;;;;;;;;4884613;29;20313;-86
2024/04/03 04:10:34;;;;;;;1.03;0.90;;;;;;;;;;4915067;29;20269;-86
2024/04/03 04:13:00;;;;;;;3.37;2.47;;;;;;;;;;4884222;29;20238;-84
2024/04/03 04:15:26;;;;;;;2.40;2.20;;;;;;;;;;4883880;29;20242;-86
2024/04/03 04:17:52;;;;;;;1.70;1.60;;;;;;;;;;4899924;29;20254;-85
2024/04/03 04:20:19;;;;;;;4.50;2.53;;;;;;;;;;4900363;29;20210;-84
2024/04/03 04:22:45;;;;;;;1.57;1.40;;;;;;;;;;4899345;29;20759;-85
2024/04/03 04:25:11;;;;;;;1.43;1.33;;;;;;;;;;4915630;29;20286;-86
2024/04/03 04:27:38;;;;;;;4.43;2.33;;;;;;;;;;4899663;29;20722;-85
2024/04/03 04:30:04;;;;;;;2.87;2.67;;;;;;;;;;4915700;29;20254;-86
2024/04/03 04:32:31;;;;;;;4.43;2.70;;;;;;;;;;4916630;29;20202;-85
2024/04/03 04:34:57;;;;;;;7.77;4.63;;;;;;;;;;4899287;29;20238;-87
2024/04/03 04:37:24;;;;;;;6.07;3.43;;;;;;;;;;4884228;29;20262;-85
2024/04/03 04:39:50;;;;;;;7.17;3.17;;;;;;;;;;4915490;29;20247;-84
2024/04/03 04:42:16;;;;;;;4.60;2.67;;;;;;;;;;4899235;29;20234;-88
2024/04/03 04:44:43;;;;;;;3.87;2.93;;;;;;;;;;4915070;29;20274;-84
2024/04/03 04:47:09;;;;;;;2.03;1.90;;;;;;;;;;4917203;29;20202;-86
2024/04/03 04:49:35;;;;;;;2.03;1.53;;;;;;;;;;4903049;29;20265;-84
2024/04/03 04:52:01;;;;;;;3.90;2.17;;;;;;;;;;4878529;29;20593;-84
2024/04/03 04:54:27;;;;;;;2.67;2.47;;;;;;;;;;4898995;29;20293;-85
2024/04/03 04:56:53;;;;;;;3.13;2.83;;;;;;;;;;4887900;29;25673;-85
2024/04/03 04:59:19;;;;;;;1.70;1.03;;;;;;;;;;4888821;29;20203;-84
2024/04/03 05:01:45;;;;;;;4.07;3.03;;;;;;;;;;4887660;29;20703;-85
2024/04/03 05:04:11;;;;;;;2.83;1.93;;;;;;;;;;4902762;29;20294;-84
2024/04/03 05:06:38;;;;;;;3.27;2.60;;;;;;;;;;4903014;29;20654;-84
2024/04/03 05:09:05;;;;;;;4.30;1.50;;;;;;;;;;4886978;29;20242;-86
2024/04/03 05:11:31;;;;;;;10.67;2.73;;;;;;;;;;4887907;29;20215;-85
2024/04/03 05:14:00;;;;;;;1.17;0.97;;;;;;;;;;4902707;29;20253;-85
2024/04/03 05:16:26;;;;;;;1.50;1.40;;;;;;;;;;4886651;29;20238;-84
2024/04/03 05:18:53;;;;;;;3.80;3.50;;;;;;;;;;4902503;29;20683;-85
2024/04/03 05:21:22;;;;;;;5.97;1.97;;;;;;;;;;4903055;29;20317;-84
2024/04/03 05:23:48;;;;;;;2.20;2.00;;;;;;;;;;4902671;29;20225;-83
2024/04/03 05:26:14;;;;;;;2.83;1.90;;;;;;;;;;4902908;29;20205;-82
2024/04/03 05:28:41;;;;;;;1.30;1.20;;;;;;;;;;4886745;29;20242;-85
2024/04/03 05:31:18;;;;;;;2.17;1.97;;;;;;;;;;4902224;29;20240;-83
2024/04/03 05:33:44;;;;;;;1.53;1.43;;;;;;;;;;4887946;29;20273;-86
2024/04/03 05:36:11;;;;;;;2.70;2.30;;;;;;;;;;4902294;29;20241;-86
2024/04/03 05:38:41;;;;;;;6.40;2.07;;;;;;;;;;4886945;29;20211;-84
2024/04/03 05:41:11;;;;;;;5.67;2.57;;;;;;;;;;4903440;29;20211;-86
2024/04/03 05:43:37;;;;;;;5.03;2.60;;;;;;;;;;4901666;29;20242;-86
2024/04/03 05:46:03;;;;;;;2.30;1.97;;;;;;;;;;4917903;29;20242;-84
2024/04/03 05:48:30;;;;;;;2.70;2.00;;;;;;;;;;4901555;29;20234;-85
2024/04/03 05:50:59;;;;;;;4.30;1.63;;;;;;;;;;4901262;29;20286;-85
2024/04/03 05:53:25;;;;;;;4.73;2.00;;;;;;;;;;4918128;29;20219;-85
2024/04/03 05:55:55;;;;;;;7.73;2.87;;;;;;;;;;4886580;29;20359;-87
2024/04/03 05:58:21;;;;;;;2.10;1.63;;;;;;;;;;4900218;29;20324;-88
2024/04/03 06:00:48;;;;;;;1.97;1.77;;;;;;;;;;4886185;29;20234;-88
2024/04/03 06:03:14;;;;;;;2.47;2.10;;;;;;;;;;4886468;29;20249;-86
2024/04/03 06:05:40;;;;;;;2.67;2.40;;;;;;;;;;4886284;29;20269;-85
2024/04/03 06:08:06;;;;;;;2.63;2.43;;;;;;;;;;4902612;29;20231;-87
2024/04/03 06:10:33;;;;;;;1.67;1.57;;;;;;;;;;4901498;29;20631;-85
2024/04/03 06:12:59;;;;;;;1.60;1.50;;;;;;;;;;4886273;29;20242;-85
2024/04/03 06:15:27;;;;;;;2.37;2.17;;;;;;;;;;4886212;29;20254;-85
2024/04/03 06:17:53;;;;;;;2.57;2.10;;;;;;;;;;4886097;29;20317;-86
2024/04/03 06:20:19;;;;;;;1.73;1.63;;;;;;;;;;4887382;29;20298;-84
2024/04/03 06:22:48;;;;;;;2.53;1.43;;;;;;;;;;4886345;29;20273;-90
2024/04/03 06:25:14;;;;;;;2.57;1.30;;;;;;;;;;4886181;29;20729;-88
2024/04/03 06:27:47;;;;;;;6.20;3.13;;;;;;;;;;4887489;29;20317;-92
2024/04/03 06:30:13;;;;;;;4.57;1.70;;;;;;;;;;4898165;29;20282;-89
2024/04/03 06:32:43;;;;;;;2.77;1.97;;;;;;;;;;4901495;29;20246;-89
2024/04/03 06:35:09;;;;;;;3.90;1.57;;;;;;;;;;4901569;29;20292;-90
2024/04/03 06:37:36;;;;;;;1.20;1.10;;;;;;;;;;4901239;29;20246;-87
2024/04/03 06:40:02;;;;;;;3.33;3.07;;;;;;;;;;4917034;29;20392;-88
2024/04/03 06:42:29;;;;;;;1.20;0.97;;;;;;;;;;4900666;29;20234;-85
2024/04/03 06:44:55;;;;;;;2.07;1.60;;;;;;;;;;4900848;29;20281;-87
2024/04/03 06:47:22;;;;;;;1.57;1.40;;;;;;;;;;4901982;29;20670;-85
2024/04/03 06:49:49;;;;;;;1.33;1.23;;;;;;;;;;4885674;29;20238;-86
2024/04/03 06:52:15;;;;;;;0.97;0.97;;;;;;;;;;4916006;29;20261;-88
2024/04/03 06:54:41;;;;;;;1.70;1.60;;;;;;;;;;4900580;29;20241;-87
2024/04/03 06:57:07;;;;;;;1.57;1.47;;;;;;;;;;4900358;29;20235;-87
2024/04/03 06:59:33;;;;;;;1.60;1.10;;;;;;;;;;4901580;29;20259;-86
2024/04/03 07:01:59;;;;;;;1.07;0.60;;;;;;;;;;4901308;29;20281;-87
2024/04/03 07:04:26;;;;;;;2.40;0.80;;;;;;;;;;4900274;29;20246;-88
2024/04/03 07:06:52;;;;;;;0.87;0.80;;;;;;;;;;4916396;29;20236;-87
2024/04/03 07:09:20;;;;;;;2.00;1.40;;;;;;;;;;4916069;29;20242;-88
2024/04/03 07:11:46;;;;;;;3.63;1.40;;;;;;;;;;4901181;29;20245;-91
2024/04/03 07:14:15;;;;;;;2.03;1.90;;;;;;;;;;4901384;29;20211;-89
2024/04/03 07:16:41;;;;;;;2.33;2.00;;;;;;;;;;4892843;29;20387;-94
2024/04/03 07:19:13;;;;;;;2.03;1.90;;;;;;;;;;4884569;29;20334;-90
2024/04/03 07:21:42;;;;;;;2.97;2.47;;;;;;;;;;4875910;29;20249;-90
2024/04/03 07:24:12;;;;;;;2.77;1.50;;;;;;;;;;4885295;29;20234;-90
2024/04/03 07:26:39;;;;;;;4.50;2.60;;;;;;;;;;4885391;29;20242;-90
2024/04/03 07:29:07;;;;;;;2.13;1.87;;;;;;;;;;4901408;29;20278;-91
2024/04/03 07:31:41;;;;;;;1.63;1.47;;;;;;;;;;4900206;29;20249;-90
2024/04/03 07:34:11;;;;;;;1.97;1.37;;;;;;;;;;4891715;29;20298;-94
2024/04/03 07:36:43;;;;;;;4.67;1.93;;;;;;;;;;4893224;29;20310;-92
2024/04/03 07:39:09;;;;;;;8.80;1.77;;;;;;;;;;4900648;29;20246;-91
2024/04/03 07:41:35;;;;;;;1.57;1.47;;;;;;;;;;4901304;29;20259;-91
2024/04/03 07:44:17;;;;;;;;;;;;;;;;;;;;;
2024/04/03 07:46:49;;;;;;;3.27;3.00;;;;;;;;;;4915807;29;20234;-92
2024/04/03 07:49:15;;;;;;;2.23;2.00;;;;;;;;;;4886201;29;20341;-92
2024/04/03 07:51:48;;;;;;;3.57;2.13;;;;;;;;;;4900933;29;20334;-90
2024/04/03 07:54:22;;;;;;;6.13;1.53;;;;;;;;;;4893966;29;20256;-92
2024/04/03 07:56:57;;;;;;;2.93;1.97;;;;;;;;;;4891594;29;20215;-93
2024/04/03 07:59:37;;;;;;;2.23;2.07;;;;;;;;;;4886930;29;20218;-92
2024/04/03 08:02:06;;;;;;;1.73;1.63;;;;;;;;;;4919713;29;20253;-92
2024/04/03 08:04:33;;;;;;;1.73;1.23;;;;;;;;;;4899660;29;20238;-92
2024/04/03 08:07:05;;;;;;;3.23;2.30;;;;;;;;;;4894453;29;20270;-94
2024/04/03 08:09:34;;;;;;;3.80;2.97;;;;;;;;;;4900368;29;20242;-94
2024/04/03 08:12:15;;;;;;;2.03;1.63;;;;;;;;;;4899341;29;20234;-94
2024/04/03 08:14:41;;;;;;;2.47;2.20;;;;;;;;;;4900122;29;20242;-92
2024/04/03 08:17:13;;;;;;;2.53;2.33;;;;;;;;;;4885885;29;20241;-93
2024/04/03 08:19:41;;;;;;;2.50;2.20;;;;;;;;;;4900186;29;20318;-90
2024/04/03 08:22:07;;;;;;;2.63;2.27;;;;;;;;;;4909404;29;20237;-92
2024/04/03 08:24:34;;;;;;;3.37;1.67;;;;;;;;;;4903680;29;20242;-85
2024/04/03 08:27:00;;;;;;;4.77;2.87;;;;;;;;;;4919838;29;20320;-91
2024/04/03 08:29:26;;;;;;;4.50;3.00;;;;;;;;;;4904214;29;20564;-91
2024/04/03 08:31:52;;;;;;;1.03;1.03;;;;;;;;;;4903677;29;20234;-90
2024/04/03 08:34:19;;;;;;;3.33;2.80;;;;;;;;;;4903623;29;20238;-89
2024/04/03 08:36:45;;;;;;;8.17;3.70;;;;;;;;;;4903439;29;20234;-89
2024/04/03 08:39:13;;;;;;;3.03;2.83;;;;;;;;;;4896779;29;20292;-88
2024/04/03 08:41:39;;;;;;;4.03;3.03;;;;;;;;;;4903874;29;20229;-92
2024/04/03 08:44:07;;;;;;;2.37;1.87;;;;;;;;;;4903399;29;20337;-88
2024/04/03 08:46:34;;;;;;;3.60;2.57;;;;;;;;;;4903184;29;20234;-92
2024/04/03 08:49:06;;;;;;;5.93;2.23;;;;;;;;;;4888653;29;20242;-89
2024/04/03 08:51:35;;;;;;;1.73;1.37;;;;;;;;;;4904100;29;20697;-90
2024/04/03 08:54:09;;;;;;;3.87;2.33;;;;;;;;;;4892064;29;21912;-92
2024/04/03 08:56:51;;;;;;;4.73;4.00;;;;;;;;;;4919344;29;20206;-93
2024/04/03 09:03:25;;;;;;;;;;;;;;;;;;;;;
2024/04/03 09:05:59;;;;;;;2.53;1.87;;;;;;;;;;4918812;29;20651;-91
2024/04/03 09:08:46;;;;;;;4.50;1.80;;;;;;;;;;4904660;29;20226;-95
2024/04/03 09:11:12;;;;;;;2.30;1.30;;;;;;;;;;4903545;29;20219;-90
2024/04/03 09:14:17;;;;;;;3.27;1.20;;;;;;;;;;4895165;29;20328;-94
2024/04/03 09:16:49;;;;;;;2.67;1.33;;;;;;;;;;4891832;29;20278;-92
2024/04/03 09:19:22;;;;;;;2.27;1.60;;;;;;;;;;4903239;29;20265;-93
2024/04/03 09:21:48;;;;;;;3.30;1.83;;;;;;;;;;4902493;29;20317;-92
2024/04/03 09:24:15;;;;;;;1.47;1.13;;;;;;;;;;4902208;29;20235;-93
2024/04/03 09:27:08;;;;;;;2.03;1.53;;;;;;;;;;4919632;29;20225;-93
2024/04/03 09:29:35;;;;;;;0.80;0.77;;;;;;;;;;4903698;29;20231;-92
2024/04/03 09:32:11;;;;;;;5.53;1.67;;;;;;;;;;4903758;29;20217;-93
2024/04/03 09:34:40;;;;;;;1.83;1.47;;;;;;;;;;4903994;29;20211;-94
2024/04/03 09:37:12;;;;;;;1.93;1.73;;;;;;;;;;4889444;29;20206;-93
2024/04/03 09:39:38;;;;;;;0.90;0.83;;;;;;;;;;4904006;29;20215;-93
2024/04/03 09:42:08;;;;;;;2.03;1.47;;;;;;;;;;4888016;29;20199;-93
2024/04/03 09:44:43;;;;;;;2.03;1.93;;;;;;;;;;4904128;29;20213;-93
2024/04/03 09:47:16;;;;;;;1.63;1.10;;;;;;;;;;4903296;29;20243;-91
2024/04/03 09:49:48;;;;;;;4.93;1.17;;;;;;;;;;4903154;29;20278;-93
2024/04/03 09:52:14;;;;;;;1.57;1.47;;;;;;;;;;4903249;29;20235;-91
2024/04/03 09:54:41;;;;;;;1.10;1.10;;;;;;;;;;4902598;29;20281;-95
2024/04/03 09:57:08;;;;;;;1.87;1.30;;;;;;;;;;4902820;29;20262;-93
2024/04/03 09:59:38;;;;;;;2.10;1.47;;;;;;;;;;4902692;29;20234;-93
2024/04/03 10:02:04;;;;;;;5.73;3.77;;;;;;;;;;4902398;29;20293;-90
2024/04/03 10:04:37;;;;;;;1.67;1.57;;;;;;;;;;4902767;29;20286;-89
2024/04/03 10:07:03;;;;;;;8.23;1.83;;;;;;;;;;4903304;29;20647;-93
2024/04/03 10:09:34;;;;;;;1.80;1.47;;;;;;;;;;4902352;29;20226;-91
2024/04/03 10:12:04;;;;;;;2.50;2.20;;;;;;;;;;4903007;29;20203;-90
2024/04/03 10:14:35;;;;;;;2.07;1.87;;;;;;;;;;4887554;29;20199;-90
2024/04/03 10:17:01;;;;;;;5.23;1.77;;;;;;;;;;4902057;29;20218;-89
2024/04/03 10:19:46;;;;;;;1.57;1.47;;;;;;;;;;4902441;29;20209;-89
2024/04/03 10:22:17;;;;;;;2.43;1.90;;;;;;;;;;4902879;29;20203;-90
2024/04/03 10:24:49;;;;;;;3.03;1.97;;;;;;;;;;4902118;29;20710;-91
2024/04/03 10:27:16;;;;;;;2.50;1.90;;;;;;;;;;4902917;29;20211;-89
2024/04/03 10:29:47;;;;;;;3.33;1.90;;;;;;;;;;4903573;29;20227;-92
2024/04/03 10:32:21;;;;;;;2.23;1.83;;;;;;;;;;4903677;29;20214;-93
2024/04/03 10:34:47;;;;;;;7.50;2.50;;;;;;;;;;4922704;29;20167;-92
2024/04/03 10:37:30;;;;;;;3.50;2.30;;;;;;;;;;4907177;29;20235;-94
2024/04/03 10:40:22;;;;;;;3.47;2.63;;;;;;;;;;4912143;29;20292;-92
2024/04/03 10:42:55;;;;;;;4.93;1.90;;;;;;;;;;4925927;29;20211;-92
2024/04/03 10:45:23;;;;;;;3.20;2.23;;;;;;;;;;4901248;29;20289;-91
2024/04/03 10:47:55;;;;;;;2.73;2.37;;;;;;;;;;4902521;29;20226;-91
2024/04/03 10:50:21;;;;;;;3.33;2.50;;;;;;;;;;4902130;29;20203;-93
2024/04/03 10:53:05;;;;;;;2.40;1.87;;;;;;;;;;4909425;29;20203;-95
2024/04/03 10:55:34;;;;;;;8.33;3.20;;;;;;;;;;4902450;29;20206;-93
2024/04/03 10:58:07;;;;;;;3.00;1.87;;;;;;;;;;4901337;29;20199;-92
2024/04/03 11:00:38;;;;;;;1.87;1.63;;;;;;;;;;4903401;29;20293;-95
2024/04/03 11:03:07;;;;;;;2.30;1.63;;;;;;;;;;4918438;29;20210;-93
2024/04/03 11:05:36;;;;;;;5.13;2.00;;;;;;;;;;4901362;29;20213;-92
2024/04/03 11:08:03;;;;;;;2.40;2.20;;;;;;;;;;4903164;29;20223;-92
2024/04/03 11:10:32;;;;;;;6.60;2.40;;;;;;;;;;4902095;29;20214;-92
2024/04/03 11:13:05;;;;;;;2.53;2.07;;;;;;;;;;4902266;29;20608;-92
2024/04/03 11:15:40;;;;;;;10.40;2.40;;;;;;;;;;4903450;29;20214;-91
2024/04/03 11:18:11;;;;;;;1.93;1.73;;;;;;;;;;4902389;29;20206;-91
2024/04/03 11:20:38;;;;;;;3.17;2.37;;;;;;;;;;4901681;29;20733;-92
2024/04/03 11:23:07;;;;;;;2.43;1.63;;;;;;;;;;4887597;29;20202;-94
2024/04/03 11:29:56;;;;;;;3.37;2.63;;;;;;;;;;4919988;29;20245;-96
2024/04/03 12:06:06;;;;;;;3.83;2.67;;;;;;;;;;4631634;30;20777;-91
2024/04/03 12:08:40;;;;;;;8.17;3.13;;;;;;;;;;4679206;30;20248;-93
2024/04/03 12:14:13;;;;;;;3.53;2.10;;;;;;;;;;4701951;30;20241;-90
2024/04/03 12:16:52;;;;;;;3.50;2.23;;;;;;;;;;4715684;30;20238;-91
2024/04/03 12:19:33;;;;;;;2.27;2.07;;;;;;;;;;4782463;30;20239;-91
2024/04/03 12:22:34;;;;;;;2.33;1.80;;;;;;;;;;4809127;29;20247;-90
2024/04/03 12:32:35;;;;;;;2.53;2.17;;;;;;;;;;4896801;29;20315;-91
2024/04/03 12:35:01;;;;;;;2.47;2.00;;;;;;;;;;4875158;29;20677;-92
2024/04/03 12:38:01;;;;;;;;;;;;;;;;;;;;;
2024/04/03 12:47:54;;;;;;;3.17;1.57;;;;;;;;;;4829349;29;20170;-95
2024/04/03 12:50:33;;;;;;;1.93;1.33;;;;;;;;;;4824798;29;20299;-92
2024/04/03 12:53:02;;;;;;;1.40;1.30;;;;;;;;;;4807417;29;20262;-92
2024/04/03 12:55:34;;;;;;;3.33;1.80;;;;;;;;;;4842730;29;20287;-90
2024/04/03 13:00:49;;;;;;;2.00;1.90;;;;;;;;;;4879505;29;20235;-90
2024/04/03 13:03:15;;;;;;;2.40;2.20;;;;;;;;;;4879900;29;20255;-91
2024/04/03 13:05:50;;;;;;;3.20;1.90;;;;;;;;;;4881307;29;20216;-90
2024/04/03 13:08:16;;;;;;;1.53;1.43;;;;;;;;;;4882117;29;20230;-91
2024/04/03 13:10:47;;;;;;;3.00;1.97;;;;;;;;;;4851861;29;20239;-91
2024/04/03 13:13:17;;;;;;;2.93;2.40;;;;;;;;;;4868005;29;20248;-90
2024/04/03 13:15:43;;;;;;;3.83;3.13;;;;;;;;;;4883171;29;20727;-90
2024/04/03 13:18:16;;;;;;;4.10;2.17;;;;;;;;;;4882950;29;20238;-91
2024/04/03 13:20:45;;;;;;;4.27;3.00;;;;;;;;;;4896285;29;20726;-90
2024/04/03 13:23:11;;;;;;;2.20;1.80;;;;;;;;;;4903243;29;20309;-92
2024/04/03 13:25:40;;;;;;;2.97;2.20;;;;;;;;;;4902354;29;20245;-93
2024/04/03 13:28:08;;;;;;;1.73;1.57;;;;;;;;;;4902435;29;20239;-90
2024/04/03 13:30:34;;;;;;;3.17;2.20;;;;;;;;;;4902668;29;20337;-90
2024/04/03 13:33:01;;;;;;;2.40;1.93;;;;;;;;;;4894670;29;20214;-90
2024/04/03 13:35:30;;;;;;;3.90;2.43;;;;;;;;;;4903666;29;20294;-91
2024/04/03 13:37:57;;;;;;;2.20;2.00;;;;;;;;;;4891516;29;20253;-91
2024/04/03 13:40:25;;;;;;;4.37;2.60;;;;;;;;;;4901818;29;20234;-91
2024/04/03 13:42:51;;;;;;;1.63;1.53;;;;;;;;;;4902047;29;20238;-92
2024/04/03 13:45:18;;;;;;;4.37;2.17;;;;;;;;;;4901608;29;20238;-88
2024/04/03 13:47:46;;;;;;;8.37;2.00;;;;;;;;;;4887892;29;20285;-92
2024/04/03 13:50:22;;;;;;;;;;;;;;;;;;;;;
2024/04/03 13:52:54;;;;;;;3.20;2.43;;;;;;;;;;4917361;29;20234;-90
2024/04/03 13:55:28;;;;;;;4.60;2.40;;;;;;;;;;4902237;29;20234;-90
2024/04/03 13:57:57;;;;;;;3.90;3.03;;;;;;;;;;4894029;29;20234;-89
2024/04/03 14:00:23;;;;;;;4.30;2.27;;;;;;;;;;4901932;29;20702;-88
2024/04/03 14:02:52;;;;;;;3.97;2.87;;;;;;;;;;4892793;29;20210;-90
2024/04/03 14:05:26;;;;;;;4.27;2.47;;;;;;;;;;4903323;29;20199;-88
2024/04/03 14:07:52;;;;;;;2.20;2.00;;;;;;;;;;4887082;29;20258;-90
2024/04/03 14:10:18;;;;;;;3.30;2.43;;;;;;;;;;4901716;29;20254;-90
2024/04/03 14:12:49;;;;;;;3.97;2.43;;;;;;;;;;4900953;29;20770;-90
2024/04/03 14:15:24;;;;;;;2.90;2.67;;;;;;;;;;4900878;29;20321;-90
2024/04/03 14:17:57;;;;;;;2.93;2.63;;;;;;;;;;4893050;29;20612;-90
2024/04/03 14:20:23;;;;;;;3.30;2.80;;;;;;;;;;4902189;29;20338;-91
2024/04/03 14:22:50;;;;;;;3.37;2.77;;;;;;;;;;4901434;29;20242;-89
2024/04/03 14:25:16;;;;;;;3.47;2.83;;;;;;;;;;4885562;29;20270;-90
2024/04/03 14:30:37;;;;;;;3.23;2.57;;;;;;;;;;4884577;29;20246;-89
2024/04/03 14:33:24;;;;;;;4.47;3.00;;;;;;;;;;4851666;29;20347;-90
2024/04/03 14:35:51;;;;;;;5.67;2.27;;;;;;;;;;4865940;29;20786;-89
2024/04/03 14:38:28;;;;;;;;;;;;;;;;;;;;;
2024/04/03 14:40:54;;;;;;;4.17;2.27;;;;;;;;;;4872613;29;20207;-90
2024/04/03 14:43:23;;;;;;;7.50;2.63;;;;;;;;;;4866881;29;20203;-88
2024/04/03 14:45:59;;;;;;;2.63;2.03;;;;;;;;;;4866129;29;20257;-89
2024/04/03 14:48:26;;;;;;;3.17;1.97;;;;;;;;;;4866035;29;20259;-90
2024/04/03 14:50:55;;;;;;;2.60;2.40;;;;;;;;;;4866021;29;20257;-88
2024/04/03 14:53:24;;;;;;;1.37;1.23;;;;;;;;;;4866296;29;20656;-90
2024/04/03 14:55:51;;;;;;;2.40;1.93;;;;;;;;;;4865884;29;20250;-87
2024/04/03 14:58:17;;;;;;;2.27;1.60;;;;;;;;;;4866417;29;20290;-90
2024/04/03 15:00:43;;;;;;;3.30;2.40;;;;;;;;;;4864482;29;20350;-87
2024/04/03 15:03:11;;;;;;;2.10;1.90;;;;;;;;;;4865101;29;20275;-89
2024/04/03 15:05:39;;;;;;;2.20;2.03;;;;;;;;;;4850236;29;20694;-89
2024/04/03 15:08:13;;;;;;;2.70;1.40;;;;;;;;;;4884506;29;20246;-89
2024/04/03 15:10:47;;;;;;;1.90;1.27;;;;;;;;;;4877050;29;20206;-89
2024/04/03 15:13:14;;;;;;;2.87;1.90;;;;;;;;;;4901602;29;20218;-88
2024/04/03 15:15:43;;;;;;;4.03;1.97;;;;;;;;;;4900357;29;20702;-91
2024/04/03 15:18:14;;;;;;;2.20;1.93;;;;;;;;;;4884744;29;20238;-87
2024/04/03 15:20:41;;;;;;;1.73;1.63;;;;;;;;;;4894545;29;20249;-88
2024/04/03 15:23:07;;;;;;;2.17;2.03;;;;;;;;;;4900394;29;20241;-87
2024/04/03 15:25:34;;;;;;;2.07;1.37;;;;;;;;;;4885577;29;20293;-87
2024/04/03 15:28:00;;;;;;;1.80;1.30;;;;;;;;;;4900337;29;20254;-87
2024/04/03 15:30:27;;;;;;;2.70;1.77;;;;;;;;;;4884407;29;20242;-87
2024/04/03 15:32:56;;;;;;;3.93;1.87;;;;;;;;;;4885109;29;20294;-90
2024/04/03 15:35:22;;;;;;;2.00;1.80;;;;;;;;;;4900597;29;20242;-88
2024/04/03 15:37:49;;;;;;;2.30;2.10;;;;;;;;;;4900259;29;20277;-89
2024/04/03 15:40:17;;;;;;;3.00;2.20;;;;;;;;;;4900842;29;20647;-90
2024/04/03 15:42:44;;;;;;;3.37;1.60;;;;;;;;;;4884923;29;20675;-87
2024/04/03 15:45:13;;;;;;;1.73;1.33;;;;;;;;;;4900507;29;20258;-88
2024/04/03 15:47:39;;;;;;;3.60;2.10;;;;;;;;;;4900567;29;20250;-86
2024/04/03 15:50:05;;;;;;;1.43;1.33;;;;;;;;;;4893891;29;20240;-87
2024/04/03 15:52:34;;;;;;;2.43;2.03;;;;;;;;;;4887384;29;20216;-88
2024/04/03 15:55:01;;;;;;;4.00;2.07;;;;;;;;;;4877284;29;20234;-86
2024/04/03 15:57:27;;;;;;;4.17;2.80;;;;;;;;;;4884829;29;20348;-87
2024/04/03 15:59:53;;;;;;;2.90;2.20;;;;;;;;;;4901028;29;20317;-86
2024/04/03 16:02:25;;;;;;;3.73;2.70;;;;;;;;;;4900980;29;20230;-88
2024/04/03 16:04:54;;;;;;;1.80;1.17;;;;;;;;;;4900089;29;20203;-85